createdAt,value
2019-05-07T00:01:23.479Z,66.81
2019-05-07T00:03:53.052Z,66.66
2019-05-07T00:06:23.186Z,66.45
2019-05-07T00:08:52.842Z,66.78
2019-05-07T00:11:22.507Z,66.60
2019-05-07T00:13:52.359Z,66.53
2019-05-07T00:16:22.548Z,66.44
2019-05-07T00:18:52.634Z,66.44
2019-05-07T00:21:23.339Z,66.47
2019-05-07T00:23:53.252Z,66.20
2019-05-07T00:26:22.771Z,66.07
2019-05-07T00:28:52.800Z,66.19
2019-05-07T00:31:23.506Z,65.98
2019-05-07T00:33:52.980Z,65.95
2019-05-07T00:36:34.248Z,65.99
2019-05-07T00:39:22.065Z,65.98
2019-05-07T00:41:57.883Z,66.20
2019-05-07T00:44:27.866Z,66.17
2019-05-07T00:46:57.365Z,66.23
2019-05-07T00:49:28.238Z,65.95
2019-05-07T00:51:57.810Z,65.86
2019-05-07T00:54:27.326Z,65.89
2019-05-07T00:56:57.013Z,66.34
2019-05-07T00:59:26.513Z,66.16
2019-05-07T01:01:56.014Z,66.35
2019-05-07T01:04:25.523Z,66.35
2019-05-07T01:06:55.018Z,66.21
2019-05-07T01:09:24.524Z,65.97
2019-05-07T01:11:54.030Z,66.23
2019-05-07T01:14:23.540Z,66.40
2019-05-07T01:16:53.103Z,66.00
2019-05-07T01:19:22.647Z,65.55
2019-05-07T01:21:52.616Z,65.92
2019-05-07T01:24:23.342Z,66.07
2019-05-07T01:26:53.134Z,66.11
2019-05-07T01:29:22.861Z,66.00
2019-05-07T01:31:58.375Z,65.92
2019-05-07T01:34:34.058Z,65.69
2019-05-07T01:37:03.572Z,65.59
2019-05-07T01:39:33.179Z,65.28
2019-05-07T01:42:02.712Z,65.27
2019-05-07T01:44:32.694Z,65.15
2019-05-07T01:47:02.668Z,64.89
2019-05-07T01:49:33.126Z,64.93
2019-05-07T01:52:03.292Z,64.75
2019-05-07T01:54:33.401Z,64.48
2019-05-07T01:57:03.158Z,64.43
2019-05-07T01:59:32.790Z,63.90
2019-05-07T02:02:09.080Z,63.77
2019-05-07T02:04:44.755Z,63.66
2019-05-07T02:07:33.393Z,63.73
2019-05-07T02:10:22.755Z,63.77
2019-05-07T02:12:52.672Z,63.44
2019-05-07T02:15:22.696Z,62.90
2019-05-07T02:17:52.669Z,62.27
2019-05-07T02:20:22.638Z,62.36
2019-05-07T02:22:53.231Z,62.69
2019-05-07T02:25:22.884Z,62.90
2019-05-07T02:27:52.905Z,62.95
2019-05-07T02:30:23.868Z,62.70
2019-05-07T02:32:54.108Z,63.07
2019-05-07T02:35:23.952Z,63.11
2019-05-07T02:38:06.580Z,63.06
2019-05-07T02:40:43.311Z,63.15
2019-05-07T02:43:14.057Z,63.22
2019-05-07T02:45:54.222Z,62.82
2019-05-07T02:48:27.532Z,62.52
2019-05-07T02:51:04.084Z,62.38
2019-05-07T02:53:42.821Z,62.05
2019-05-07T02:56:13.028Z,62.11
2019-05-07T02:58:43.482Z,62.13
2019-05-07T03:01:14.030Z,62.23
2019-05-07T03:03:44.939Z,62.15
2019-05-07T03:06:14.710Z,61.79
2019-05-07T03:08:44.495Z,62.12
2019-05-07T03:11:14.399Z,62.03
2019-05-07T03:13:44.001Z,61.80
2019-05-07T03:16:13.586Z,62.11
2019-05-07T03:18:44.703Z,62.73
2019-05-07T03:21:16.430Z,62.87
2019-05-07T03:24:05.002Z,63.43
2019-05-07T03:26:38.923Z,63.30
2019-05-07T03:29:13.202Z,63.22
2019-05-07T03:32:06.135Z,63.24
2019-05-07T03:34:45.827Z,63.48
2019-05-07T03:37:13.603Z,63.72
2019-05-07T03:39:44.353Z,63.75
2019-05-07T03:42:13.917Z,63.84
2019-05-07T03:44:53.780Z,63.80
2019-05-07T03:47:32.932Z,63.84
2019-05-07T03:50:03.212Z,63.59
2019-05-07T03:52:33.535Z,63.44
2019-05-07T03:55:03.859Z,63.34
2019-05-07T03:57:33.813Z,63.59
2019-05-07T04:00:04.407Z,63.78
2019-05-07T04:02:34.117Z,63.40
2019-05-07T04:05:04.499Z,63.20
2019-05-07T04:07:34.178Z,62.79
2019-05-07T04:10:04.877Z,62.39
2019-05-07T04:12:35.026Z,62.44
2019-05-07T04:15:05.737Z,62.53
2019-05-07T04:17:35.234Z,62.68
2019-05-07T04:20:04.998Z,62.95
2019-05-07T04:22:35.669Z,62.69
2019-05-07T04:25:24.056Z,62.59
2019-05-07T04:28:03.689Z,62.55
2019-05-07T04:30:34.269Z,62.66
2019-05-07T04:33:06.047Z,62.42
2019-05-07T04:35:53.533Z,62.33
2019-05-07T04:38:23.835Z,62.17
2019-05-07T04:40:53.694Z,62.16
2019-05-07T04:43:23.601Z,62.27
2019-05-07T04:45:53.854Z,62.36
2019-05-07T04:48:23.727Z,62.56
2019-05-07T04:50:55.536Z,62.55
2019-05-07T04:53:25.049Z,62.27
2019-05-07T04:55:54.566Z,62.11
2019-05-07T04:58:26.572Z,61.85
2019-05-07T05:00:55.273Z,62.36
2019-05-07T05:03:26.619Z,62.54
2019-05-07T05:05:56.130Z,62.75
2019-05-07T05:08:25.671Z,63.08
2019-05-07T05:10:55.208Z,63.27
2019-05-07T05:13:25.003Z,63.15
2019-05-07T05:15:54.508Z,62.84
2019-05-07T05:18:24.020Z,62.76
2019-05-07T05:21:18.574Z,63.26
2019-05-07T05:23:56.004Z,63.37
2019-05-07T05:26:25.521Z,63.13
2019-05-07T05:28:56.403Z,63.79
2019-05-07T05:31:25.986Z,63.88
2019-05-07T05:33:55.495Z,63.94
2019-05-07T05:36:24.999Z,63.95
2019-05-07T05:38:54.523Z,63.77
2019-05-07T05:41:25.597Z,63.33
2019-05-07T05:44:02.496Z,63.89
2019-05-07T05:46:33.163Z,63.30
2019-05-07T05:49:02.802Z,62.68
2019-05-07T05:51:52.517Z,62.73
2019-05-07T05:54:34.814Z,62.14
2019-05-07T05:57:32.125Z,62.04
2019-05-07T06:00:18.878Z,61.06
2019-05-07T06:02:57.107Z,61.68
2019-05-07T06:05:42.879Z,61.09
2019-05-07T06:08:37.272Z,61.08
2019-05-07T06:11:26.157Z,60.10
2019-05-07T06:14:02.302Z,58.49
2019-05-07T06:16:36.731Z,58.63
2019-05-07T06:19:16.825Z,58.29
2019-05-07T06:22:16.758Z,57.50
2019-05-07T06:24:56.402Z,57.97
2019-05-07T06:27:26.078Z,57.22
2019-05-07T06:29:55.592Z,57.25
2019-05-07T06:32:25.111Z,57.48
2019-05-07T06:34:54.647Z,54.24
2019-05-07T06:37:24.177Z,55.95
2019-05-07T06:40:25.717Z,54.66
2019-05-07T06:43:08.868Z,54.16
2019-05-07T06:45:42.261Z,53.69
2019-05-07T06:48:12.675Z,52.29
2019-05-07T06:50:56.591Z,52.99
2019-05-07T06:53:29.408Z,54.10
2019-05-07T06:56:02.529Z,54.75
2019-05-07T06:58:45.933Z,55.42
2019-05-07T07:01:38.378Z,55.46
2019-05-07T07:04:22.521Z,54.50
2019-05-07T07:07:04.562Z,53.26
2019-05-07T07:09:53.095Z,53.94
2019-05-07T07:12:26.103Z,55.60
2019-05-07T07:14:58.068Z,55.05
2019-05-07T07:17:26.945Z,54.76
2019-05-07T07:19:56.527Z,55.93
2019-05-07T07:22:26.059Z,57.04
2019-05-07T07:24:55.568Z,55.91
2019-05-07T07:27:25.119Z,54.94
2019-05-07T07:30:16.500Z,54.49
2019-05-07T07:32:47.226Z,55.46
2019-05-07T07:35:18.206Z,54.63
2019-05-07T07:37:47.723Z,53.34
2019-05-07T07:40:29.325Z,52.68
2019-05-07T07:42:58.835Z,50.65
2019-05-07T07:45:28.429Z,51.86
2019-05-07T07:47:57.935Z,51.86
2019-05-07T07:50:27.521Z,51.95
2019-05-07T07:52:57.024Z,49.78
2019-05-07T07:55:33.217Z,51.96
2019-05-07T07:58:22.202Z,51.26
2019-05-07T08:01:12.198Z,51.96
2019-05-07T08:03:41.888Z,50.96
2019-05-07T08:06:11.956Z,50.54
2019-05-07T08:08:42.463Z,50.38
2019-05-07T08:11:12.779Z,48.73
2019-05-07T08:13:42.550Z,48.88
2019-05-07T08:16:13.160Z,48.83
2019-05-07T08:18:43.821Z,49.71
2019-05-07T08:21:13.321Z,49.53
2019-05-07T08:23:42.830Z,49.38
2019-05-07T08:26:12.664Z,50.15
2019-05-07T08:28:42.228Z,51.38
2019-05-07T08:31:24.981Z,49.91
2019-05-07T08:34:03.444Z,48.39
2019-05-07T08:36:33.225Z,48.35
2019-05-07T08:39:02.779Z,47.94
2019-05-07T08:41:33.363Z,46.74
2019-05-07T08:44:14.615Z,47.53
2019-05-07T08:46:58.615Z,47.87
2019-05-07T08:49:36.898Z,45.71
2019-05-07T08:52:03.518Z,42.16
2019-05-07T08:54:33.637Z,43.67
2019-05-07T08:57:03.221Z,42.67
2019-05-07T08:59:33.906Z,44.62
2019-05-07T09:02:03.705Z,43.37
2019-05-07T09:04:33.213Z,44.15
2019-05-07T09:07:02.966Z,43.87
2019-05-07T09:09:32.789Z,46.64
2019-05-07T09:12:03.212Z,47.31
2019-05-07T09:14:32.808Z,43.73
2019-05-07T09:17:02.901Z,45.78
2019-05-07T09:19:46.777Z,45.14
2019-05-07T09:22:04.383Z,46.70
2019-05-07T09:24:33.882Z,46.75
2019-05-07T09:27:24.757Z,46.15
2019-05-07T09:30:16.074Z,45.99
2019-05-07T09:32:52.209Z,46.83
2019-05-07T09:35:25.267Z,44.66
2019-05-07T09:37:54.786Z,45.00
2019-05-07T09:40:24.292Z,47.03
2019-05-07T09:42:53.797Z,47.59
2019-05-07T09:45:23.366Z,47.25
2019-05-07T09:47:52.863Z,45.92
2019-05-07T09:50:22.380Z,44.10
2019-05-07T09:52:52.046Z,45.38
2019-05-07T09:55:23.373Z,44.71
2019-05-07T09:57:52.915Z,44.14
2019-05-07T10:00:23.259Z,40.40
2019-05-07T10:02:52.949Z,41.94
2019-05-07T10:05:22.536Z,42.56
2019-05-07T10:07:52.611Z,41.71
2019-05-07T10:10:22.390Z,42.95
2019-05-07T10:13:17.051Z,42.47
2019-05-07T10:15:46.612Z,40.60
2019-05-07T10:18:17.649Z,42.38
2019-05-07T10:20:47.226Z,42.73
2019-05-07T10:23:22.393Z,44.30
2019-05-07T10:25:53.329Z,44.07
2019-05-07T10:28:23.310Z,46.08
2019-05-07T10:30:54.329Z,41.12
2019-05-07T10:33:24.870Z,41.12
2019-05-07T10:35:54.459Z,41.15
2019-05-07T10:38:23.980Z,40.56
2019-05-07T10:40:53.565Z,43.74
2019-05-07T10:43:23.148Z,43.67
2019-05-07T10:46:12.637Z,41.26
2019-05-07T10:48:59.073Z,41.87
2019-05-07T10:51:28.586Z,43.00
2019-05-07T10:53:58.125Z,43.66
2019-05-07T10:56:27.708Z,43.12
2019-05-07T10:58:57.333Z,42.34
2019-05-07T11:01:34.129Z,40.13
2019-05-07T11:04:03.720Z,42.59
2019-05-07T11:06:33.222Z,41.10
2019-05-07T11:09:02.783Z,41.15
2019-05-07T11:11:33.905Z,42.48
2019-05-07T11:14:03.490Z,44.03
2019-05-07T11:16:37.372Z,44.49
2019-05-07T11:19:06.892Z,42.68
2019-05-07T11:21:36.468Z,41.83
2019-05-07T11:24:06.041Z,40.95
2019-05-07T11:26:35.551Z,43.02
2019-05-07T11:29:05.218Z,43.52
2019-05-07T11:31:35.682Z,40.47
2019-05-07T11:34:05.255Z,41.96
2019-05-07T11:36:34.863Z,43.39
2019-05-07T11:39:06.271Z,44.13
2019-05-07T11:41:47.272Z,42.76
2019-05-07T11:44:23.002Z,41.67
2019-05-07T11:47:12.303Z,40.96
2019-05-07T11:49:59.779Z,40.24
2019-05-07T11:52:35.783Z,40.64
2019-05-07T11:55:06.354Z,41.58
2019-05-07T11:57:35.908Z,42.44
2019-05-07T12:00:05.871Z,42.80
2019-05-07T12:02:35.390Z,41.16
2019-05-07T12:05:05.035Z,41.34
2019-05-07T12:07:34.527Z,42.08
2019-05-07T12:10:05.069Z,42.59
2019-05-07T12:12:34.550Z,42.37
2019-05-07T12:15:04.180Z,38.82
2019-05-07T12:17:33.759Z,38.58
2019-05-07T12:20:05.392Z,40.34
2019-05-07T12:22:47.367Z,39.53
2019-05-07T12:25:19.466Z,40.76
2019-05-07T12:27:50.529Z,42.31
2019-05-07T12:33:49.283Z,41.70
2019-05-07T12:36:18.876Z,41.86
2019-05-07T12:38:48.384Z,43.11
2019-05-07T12:41:33.207Z,40.51
2019-05-07T12:44:03.020Z,41.20
2019-05-07T12:46:33.808Z,41.21
2019-05-07T12:49:03.561Z,40.91
2019-05-07T12:51:38.543Z,40.16
2019-05-07T12:54:27.349Z,39.43
2019-05-07T12:56:56.988Z,39.31
2019-05-07T12:59:26.892Z,40.08
2019-05-07T13:02:21.419Z,39.05
2019-05-07T13:04:41.805Z,40.38
2019-05-07T13:07:29.201Z,40.10
2019-05-07T13:09:59.645Z,39.72
2019-05-07T13:12:32.703Z,39.05
2019-05-07T13:15:02.967Z,41.07
2019-05-07T13:17:34.382Z,41.65
2019-05-07T13:20:17.929Z,42.11
2019-05-07T13:22:47.056Z,41.85
2019-05-07T13:25:18.252Z,39.63
2019-05-07T13:27:47.757Z,39.30
2019-05-07T13:30:17.737Z,37.66
2019-05-07T13:33:12.374Z,39.10
2019-05-07T13:35:44.556Z,41.28
2019-05-07T13:38:51.975Z,40.76
2019-05-07T13:41:56.086Z,39.44
2019-05-07T13:44:33.332Z,39.22
2019-05-07T13:47:21.915Z,38.86
2019-05-07T13:49:53.741Z,40.61
2019-05-07T13:52:24.080Z,39.71
2019-05-07T13:54:54.028Z,38.14
2019-05-07T13:57:24.081Z,38.72
2019-05-07T13:59:54.334Z,39.50
2019-05-07T14:02:26.083Z,38.31
2019-05-07T14:04:55.729Z,37.74
2019-05-07T14:07:26.760Z,37.58
2019-05-07T14:09:56.317Z,39.69
2019-05-07T14:12:29.459Z,39.05
2019-05-07T14:14:59.027Z,39.08
2019-05-07T14:17:28.545Z,38.27
2019-05-07T14:19:58.076Z,39.05
2019-05-07T14:22:27.721Z,38.88
2019-05-07T14:24:57.255Z,39.20
2019-05-07T14:27:26.931Z,38.90
2019-05-07T14:29:56.501Z,38.68
2019-05-07T14:32:52.560Z,37.86
2019-05-07T14:35:48.702Z,36.44
2019-05-07T14:38:25.459Z,36.99
2019-05-07T14:40:54.975Z,36.36
2019-05-07T14:43:34.612Z,36.84
2019-05-07T14:46:04.393Z,39.71
2019-05-07T14:48:36.233Z,37.13
2019-05-07T14:51:05.295Z,36.13
2019-05-07T14:53:34.851Z,35.98
2019-05-07T14:56:04.406Z,35.18
2019-05-07T14:58:34.119Z,36.54
2019-05-07T15:01:03.741Z,36.38
2019-05-07T15:03:33.260Z,35.81
2019-05-07T15:06:02.936Z,36.04
2019-05-07T15:08:33.439Z,34.35
2019-05-07T15:11:03.101Z,34.96
2019-05-07T15:13:32.741Z,35.93
2019-05-07T15:16:03.098Z,36.85
2019-05-07T15:18:52.969Z,36.15
2019-05-07T15:21:22.984Z,36.39
2019-05-07T15:23:56.797Z,36.13
2019-05-07T15:26:27.465Z,35.12
2019-05-07T15:29:12.034Z,35.95
2019-05-07T15:32:18.736Z,34.93
2019-05-07T15:34:48.251Z,37.54
2019-05-07T15:37:18.707Z,41.93
2019-05-07T15:39:48.501Z,36.39
2019-05-07T15:42:18.067Z,38.06
2019-05-07T15:44:48.539Z,37.74
2019-05-07T15:47:23.471Z,38.00
2019-05-07T15:49:53.009Z,36.67
2019-05-07T15:52:51.462Z,35.90
2019-05-07T15:55:15.738Z,36.03
2019-05-07T15:57:45.550Z,35.53
2019-05-07T16:00:17.986Z,34.45
2019-05-07T16:02:53.565Z,33.84
2019-05-07T16:05:22.438Z,34.27
2019-05-07T16:07:52.473Z,34.60
2019-05-07T16:10:23.290Z,35.16
2019-05-07T16:12:53.433Z,35.38
2019-05-07T16:15:22.997Z,34.36
2019-05-07T16:17:57.618Z,35.32
2019-05-07T16:20:27.138Z,34.49
2019-05-07T16:23:12.118Z,34.89
2019-05-07T16:25:32.870Z,34.64
2019-05-07T16:28:04.897Z,34.60
2019-05-07T16:30:34.256Z,34.76
2019-05-07T16:33:03.763Z,34.56
2019-05-07T16:35:37.528Z,35.31
2019-05-07T16:38:07.775Z,36.24
2019-05-07T16:40:37.302Z,35.51
2019-05-07T16:43:06.847Z,35.17
2019-05-07T16:45:36.801Z,34.93
2019-05-07T16:48:06.397Z,35.36
2019-05-07T16:50:36.883Z,35.55
2019-05-07T16:53:06.842Z,34.68
2019-05-07T16:55:37.148Z,33.79
2019-05-07T16:58:12.569Z,35.44
2019-05-07T17:00:45.096Z,36.35
2019-05-07T17:03:19.112Z,35.32
2019-05-07T17:05:49.034Z,35.12
2019-05-07T17:08:26.633Z,35.94
2019-05-07T17:10:56.589Z,37.23
2019-05-07T17:13:26.370Z,38.25
2019-05-07T17:16:03.375Z,37.93
2019-05-07T17:18:35.563Z,39.44
2019-05-07T17:21:06.019Z,40.47
2019-05-07T17:23:44.238Z,41.00
2019-05-07T17:26:06.767Z,41.73
2019-05-07T17:28:36.561Z,42.81
2019-05-07T17:31:06.226Z,43.66
2019-05-07T17:33:35.787Z,44.32
2019-05-07T17:36:05.586Z,44.90
2019-05-07T17:38:35.096Z,45.16
2019-05-07T17:41:13.053Z,45.18
2019-05-07T17:43:36.327Z,46.03
2019-05-07T17:46:07.762Z,46.02
2019-05-07T17:48:37.751Z,45.89
2019-05-07T17:51:26.771Z,46.24
2019-05-07T17:54:00.159Z,45.71
2019-05-07T17:56:32.052Z,46.32
2019-05-07T17:59:02.888Z,46.64
2019-05-07T18:01:59.216Z,46.85
2019-05-07T18:04:36.549Z,46.74
2019-05-07T18:07:03.436Z,46.72
2019-05-07T18:09:33.823Z,46.36
2019-05-07T18:12:03.709Z,46.80
2019-05-07T18:14:33.447Z,47.16
2019-05-07T18:17:08.843Z,46.89
2019-05-07T18:19:38.535Z,47.23
2019-05-07T18:22:34.758Z,47.26
2019-05-07T18:25:46.209Z,46.71
2019-05-07T18:28:08.119Z,46.68
2019-05-07T18:30:37.691Z,47.27
2019-05-07T18:33:25.558Z,46.26
2019-05-07T18:35:55.165Z,45.76
2019-05-07T18:38:24.697Z,45.95
2019-05-07T18:40:54.221Z,45.58
2019-05-07T18:43:23.750Z,45.42
2019-05-07T18:45:53.267Z,45.53
2019-05-07T18:48:22.783Z,45.01
2019-05-07T18:50:52.366Z,45.47
2019-05-07T18:53:22.902Z,45.43
2019-05-07T18:55:52.425Z,45.82
2019-05-07T18:58:24.090Z,46.27
2019-05-07T19:01:11.769Z,46.48
2019-05-07T19:03:41.950Z,46.35
2019-05-07T19:06:13.366Z,46.70
2019-05-07T19:08:43.206Z,47.08
2019-05-07T19:11:12.832Z,46.79
2019-05-07T19:13:42.438Z,46.83
2019-05-07T19:16:12.674Z,46.80
2019-05-07T19:18:43.216Z,47.26
2019-05-07T19:21:12.917Z,47.09
2019-05-07T19:23:42.579Z,47.25
2019-05-07T19:26:13.328Z,47.75
2019-05-07T19:28:44.030Z,47.16
2019-05-07T19:31:13.527Z,46.83
2019-05-07T19:33:43.063Z,47.07
2019-05-07T19:36:12.748Z,47.40
2019-05-07T19:38:42.423Z,48.07
2019-05-07T19:41:12.443Z,46.91
2019-05-07T19:43:42.143Z,46.93
2019-05-07T19:46:12.628Z,47.13
2019-05-07T19:48:44.057Z,47.06
2019-05-07T19:51:13.294Z,47.18
2019-05-07T19:53:42.793Z,47.35
2019-05-07T19:56:17.989Z,47.05
2019-05-07T19:58:47.760Z,47.19
2019-05-07T20:01:22.784Z,47.13
2019-05-07T20:03:53.002Z,47.25
2019-05-07T20:06:23.453Z,47.42
2019-05-07T20:08:53.161Z,47.81
2019-05-07T20:11:28.525Z,47.53
2019-05-07T20:13:58.115Z,48.23
2019-05-07T20:16:27.832Z,48.32
2019-05-07T20:18:57.351Z,48.62
2019-05-07T20:21:26.959Z,48.60
2019-05-07T20:23:56.481Z,48.55
2019-05-07T20:26:26.009Z,48.85
2019-05-07T20:28:55.519Z,48.97
2019-05-07T20:31:25.030Z,49.21
2019-05-07T20:33:54.586Z,49.61
2019-05-07T20:36:24.162Z,49.71
2019-05-07T20:38:53.681Z,49.42
2019-05-07T20:41:23.461Z,49.59
2019-05-07T20:43:53.084Z,49.60
2019-05-07T20:46:22.594Z,49.80
2019-05-07T20:48:52.666Z,50.02
2019-05-07T20:51:23.085Z,50.10
2019-05-07T20:54:14.839Z,50.23
2019-05-07T20:56:55.877Z,50.48
2019-05-07T20:59:25.444Z,50.53
2019-05-07T21:01:54.948Z,50.28
2019-05-07T21:04:24.571Z,50.24
2019-05-07T21:06:54.150Z,50.39
2019-05-07T21:09:23.679Z,50.47
2019-05-07T21:11:53.171Z,50.91
2019-05-07T21:14:22.922Z,51.18
2019-05-07T21:16:52.466Z,51.45
2019-05-07T21:19:22.402Z,52.01
2019-05-07T21:21:52.103Z,52.32
2019-05-07T21:24:22.534Z,52.26
2019-05-07T21:26:53.064Z,52.48
2019-05-07T21:29:22.882Z,52.85
2019-05-07T21:31:52.548Z,53.00
2019-05-07T21:34:23.001Z,53.23
2019-05-07T21:36:52.695Z,53.11
2019-05-07T21:39:22.459Z,53.42
2019-05-07T21:41:52.132Z,53.42
2019-05-07T21:44:25.253Z,53.10
2019-05-07T21:46:53.816Z,52.87
2019-05-07T21:49:23.353Z,52.82
2019-05-07T21:51:54.617Z,53.06
2019-05-07T21:54:38.855Z,53.37
2019-05-07T21:57:32.830Z,53.82
2019-05-07T22:00:15.585Z,54.04
2019-05-07T22:02:46.723Z,54.25
2019-05-07T22:05:16.356Z,54.10
2019-05-07T22:07:45.878Z,54.53
2019-05-07T22:10:15.664Z,54.67
2019-05-07T22:12:45.241Z,54.77
2019-05-07T22:15:14.827Z,54.97
2019-05-07T22:17:44.490Z,55.17
2019-05-07T22:20:14.206Z,55.14
2019-05-07T22:22:43.707Z,55.26
2019-05-07T22:25:13.225Z,55.54
2019-05-07T22:27:44.341Z,55.77
2019-05-07T22:30:19.621Z,56.14
2019-05-07T22:32:56.456Z,56.21
2019-05-07T22:35:29.783Z,56.34
2019-05-07T22:38:00.900Z,56.47
2019-05-07T22:40:32.185Z,56.31
2019-05-07T22:43:03.248Z,56.36
2019-05-07T22:45:32.797Z,56.47
2019-05-07T22:48:02.910Z,56.77
2019-05-07T22:50:33.139Z,56.44
2019-05-07T22:53:02.916Z,56.57
2019-05-07T22:55:32.758Z,56.80
2019-05-07T22:58:07.088Z,56.83
2019-05-07T23:00:42.530Z,57.15
2019-05-07T23:03:12.344Z,57.14
2019-05-07T23:05:44.950Z,57.25
2019-05-07T23:08:14.114Z,57.26
2019-05-07T23:10:44.605Z,57.32
2019-05-07T23:13:14.220Z,57.27
2019-05-07T23:15:44.746Z,57.33
2019-05-07T23:18:14.267Z,57.96
2019-05-07T23:20:43.843Z,57.87
2019-05-07T23:23:14.221Z,57.83
2019-05-07T23:25:43.756Z,57.90
2019-05-07T23:28:13.276Z,57.84
2019-05-07T23:30:44.359Z,57.92
2019-05-07T23:33:14.002Z,58.08
2019-05-07T23:35:43.598Z,58.12
2019-05-07T23:38:15.905Z,57.97
2019-05-07T23:41:02.167Z,58.25
2019-05-07T23:43:32.006Z,58.49
2019-05-07T23:46:02.490Z,57.97
2019-05-07T23:48:32.222Z,58.38
2019-05-07T23:51:02.286Z,58.36
2019-05-07T23:53:31.859Z,58.60
2019-05-07T23:56:02.846Z,58.46
2019-05-07T23:58:32.693Z,58.90
